sensor_id;sensor_type;location;lat;lon;timestamp;P1;durP1;ratioP1;P2;durP2;ratioP2
7831;SDS011;3961;42.058;25.586;2022-10-16T00:00:31;7.47;;;5.70;;
7831;SDS011;3961;42.058;25.586;2022-10-16T00:02:57;15.77;;;5.50;;
7831;SDS011;3961;42.058;25.586;2022-10-16T00:05:23;11.47;;;5.93;;
7831;SDS011;3961;42.058;25.586;2022-10-16T00:07:49;11.90;;;5.60;;
7831;SDS011;3961;42.058;25.586;2022-10-16T00:10:14;8.80;;;5.83;;
7831;SDS011;3961;42.058;25.586;2022-10-16T00:12:40;16.00;;;6.20;;
7831;SDS011;3961;42.058;25.586;2022-10-16T00:15:06;6.87;;;5.40;;
7831;SDS011;3961;42.058;25.586;2022-10-16T00:20:02;9.50;;;5.80;;
7831;SDS011;3961;42.058;25.586;2022-10-16T00:22:28;9.90;;;5.50;;
7831;SDS011;3961;42.058;25.586;2022-10-16T00:24:54;10.80;;;5.37;;
7831;SDS011;3961;42.058;25.586;2022-10-16T00:27:19;13.43;;;5.80;;
7831;SDS011;3961;42.058;25.586;2022-10-16T00:29:48;9.30;;;5.40;;
7831;SDS011;3961;42.058;25.586;2022-10-16T00:32:15;8.07;;;4.97;;
7831;SDS011;3961;42.058;25.586;2022-10-16T00:34:40;6.53;;;4.97;;
7831;SDS011;3961;42.058;25.586;2022-10-16T00:37:06;7.50;;;5.30;;
7831;SDS011;3961;42.058;25.586;2022-10-16T00:39:31;14.77;;;5.70;;
7831;SDS011;3961;42.058;25.586;2022-10-16T00:41:57;9.30;;;5.20;;
7831;SDS011;3961;42.058;25.586;2022-10-16T00:49:57;8.17;;;5.00;;
7831;SDS011;3961;42.058;25.586;2022-10-16T00:52:27;7.40;;;5.43;;
7831;SDS011;3961;42.058;25.586;2022-10-16T00:54:53;7.07;;;5.30;;
7831;SDS011;3961;42.058;25.586;2022-10-16T00:57:19;8.83;;;5.30;;
7831;SDS011;3961;42.058;25.586;2022-10-16T00:59:45;12.00;;;6.90;;
7831;SDS011;3961;42.058;25.586;2022-10-16T01:02:12;11.13;;;5.53;;
7831;SDS011;3961;42.058;25.586;2022-10-16T01:04:40;11.07;;;6.10;;
7831;SDS011;3961;42.058;25.586;2022-10-16T01:07:18;12.30;;;5.43;;
7831;SDS011;3961;42.058;25.586;2022-10-16T01:26:05;11.27;;;6.30;;
7831;SDS011;3961;42.058;25.586;2022-10-16T01:28:37;11.17;;;5.57;;
7831;SDS011;3961;42.058;25.586;2022-10-16T01:31:08;8.50;;;5.47;;
7831;SDS011;3961;42.058;25.586;2022-10-16T01:33:41;13.17;;;5.87;;
7831;SDS011;3961;42.058;25.586;2022-10-16T01:36:10;9.97;;;5.77;;
7831;SDS011;3961;42.058;25.586;2022-10-16T01:38:39;10.97;;;5.77;;
7831;SDS011;3961;42.058;25.586;2022-10-16T01:43:46;15.93;;;5.43;;
7831;SDS011;3961;42.058;25.586;2022-10-16T01:46:15;10.00;;;6.10;;
7831;SDS011;3961;42.058;25.586;2022-10-16T01:48:43;9.57;;;5.53;;
7831;SDS011;3961;42.058;25.586;2022-10-16T01:51:11;9.20;;;5.60;;
7831;SDS011;3961;42.058;25.586;2022-10-16T01:53:41;11.70;;;5.67;;
7831;SDS011;3961;42.058;25.586;2022-10-16T01:56:12;9.57;;;6.57;;
7831;SDS011;3961;42.058;25.586;2022-10-16T01:58:44;11.67;;;5.87;;
7831;SDS011;3961;42.058;25.586;2022-10-16T02:01:15;10.93;;;5.37;;
7831;SDS011;3961;42.058;25.586;2022-10-16T02:03:45;12.30;;;5.67;;
7831;SDS011;3961;42.058;25.586;2022-10-16T02:06:13;13.40;;;6.60;;
7831;SDS011;3961;42.058;25.586;2022-10-16T02:08:39;21.37;;;7.37;;
7831;SDS011;3961;42.058;25.586;2022-10-16T02:11:09;10.03;;;5.53;;
7831;SDS011;3961;42.058;25.586;2022-10-16T02:16:10;11.47;;;6.20;;
7831;SDS011;3961;42.058;25.586;2022-10-16T02:18:37;13.87;;;5.70;;
7831;SDS011;3961;42.058;25.586;2022-10-16T02:26:35;12.17;;;6.00;;
7831;SDS011;3961;42.058;25.586;2022-10-16T02:29:22;14.70;;;6.17;;
7831;SDS011;3961;42.058;25.586;2022-10-16T02:31:53;15.17;;;6.67;;
7831;SDS011;3961;42.058;25.586;2022-10-16T02:34:23;9.70;;;6.13;;
7831;SDS011;3961;42.058;25.586;2022-10-16T02:36:50;22.90;;;6.00;;
7831;SDS011;3961;42.058;25.586;2022-10-16T02:39:18;19.33;;;6.30;;
7831;SDS011;3961;42.058;25.586;2022-10-16T02:41:44;9.70;;;5.43;;
7831;SDS011;3961;42.058;25.586;2022-10-16T02:44:10;13.17;;;5.27;;
7831;SDS011;3961;42.058;25.586;2022-10-16T02:46:36;13.70;;;5.57;;
7831;SDS011;3961;42.058;25.586;2022-10-16T02:49:01;17.23;;;6.00;;
7831;SDS011;3961;42.058;25.586;2022-10-16T02:51:27;13.73;;;5.93;;
7831;SDS011;3961;42.058;25.586;2022-10-16T02:53:53;11.63;;;5.70;;
7831;SDS011;3961;42.058;25.586;2022-10-16T02:56:18;16.13;;;5.80;;
7831;SDS011;3961;42.058;25.586;2022-10-16T02:58:44;13.30;;;5.70;;
7831;SDS011;3961;42.058;25.586;2022-10-16T03:01:09;12.07;;;5.80;;
7831;SDS011;3961;42.058;25.586;2022-10-16T03:03:37;10.83;;;5.80;;
7831;SDS011;3961;42.058;25.586;2022-10-16T03:06:02;11.83;;;6.10;;
7831;SDS011;3961;42.058;25.586;2022-10-16T03:08:28;12.80;;;5.97;;
7831;SDS011;3961;42.058;25.586;2022-10-16T03:10:55;10.50;;;6.00;;
7831;SDS011;3961;42.058;25.586;2022-10-16T03:13:20;11.57;;;5.50;;
7831;SDS011;3961;42.058;25.586;2022-10-16T03:15:46;7.73;;;5.80;;
7831;SDS011;3961;42.058;25.586;2022-10-16T03:18:11;12.63;;;6.00;;
7831;SDS011;3961;42.058;25.586;2022-10-16T03:20:37;19.20;;;7.00;;
7831;SDS011;3961;42.058;25.586;2022-10-16T03:23:03;12.23;;;6.57;;
7831;SDS011;3961;42.058;25.586;2022-10-16T03:25:28;17.90;;;8.33;;
7831;SDS011;3961;42.058;25.586;2022-10-16T03:27:54;17.53;;;9.97;;
7831;SDS011;3961;42.058;25.586;2022-10-16T03:30:19;26.80;;;13.33;;
7831;SDS011;3961;42.058;25.586;2022-10-16T03:32:44;70.40;;;32.27;;
7831;SDS011;3961;42.058;25.586;2022-10-16T03:35:10;94.27;;;44.23;;
7831;SDS011;3961;42.058;25.586;2022-10-16T03:37:35;89.33;;;41.83;;
7831;SDS011;3961;42.058;25.586;2022-10-16T03:40:02;82.33;;;38.10;;
7831;SDS011;3961;42.058;25.586;2022-10-16T03:42:28;49.27;;;25.60;;
7831;SDS011;3961;42.058;25.586;2022-10-16T03:44:54;38.77;;;20.17;;
7831;SDS011;3961;42.058;25.586;2022-10-16T03:47:20;35.40;;;19.03;;
7831;SDS011;3961;42.058;25.586;2022-10-16T03:49:46;42.20;;;20.30;;
7831;SDS011;3961;42.058;25.586;2022-10-16T03:52:13;39.27;;;20.70;;
7831;SDS011;3961;42.058;25.586;2022-10-16T03:54:38;28.00;;;14.83;;
7831;SDS011;3961;42.058;25.586;2022-10-16T03:57:03;41.50;;;13.87;;
7831;SDS011;3961;42.058;25.586;2022-10-16T03:59:29;50.80;;;19.13;;
7831;SDS011;3961;42.058;25.586;2022-10-16T04:01:54;23.27;;;11.33;;
7831;SDS011;3961;42.058;25.586;2022-10-16T04:04:20;22.07;;;9.53;;
7831;SDS011;3961;42.058;25.586;2022-10-16T04:06:45;16.27;;;9.43;;
7831;SDS011;3961;42.058;25.586;2022-10-16T04:09:11;17.77;;;10.10;;
7831;SDS011;3961;42.058;25.586;2022-10-16T04:11:36;31.37;;;12.70;;
7831;SDS011;3961;42.058;25.586;2022-10-16T04:14:02;29.03;;;12.30;;
7831;SDS011;3961;42.058;25.586;2022-10-16T04:16:27;33.03;;;12.23;;
7831;SDS011;3961;42.058;25.586;2022-10-16T04:18:53;31.17;;;12.10;;
7831;SDS011;3961;42.058;25.586;2022-10-16T04:21:19;36.63;;;12.50;;
7831;SDS011;3961;42.058;25.586;2022-10-16T04:23:44;23.43;;;11.00;;
7831;SDS011;3961;42.058;25.586;2022-10-16T04:26:10;25.43;;;12.00;;
7831;SDS011;3961;42.058;25.586;2022-10-16T04:28:36;65.40;;;24.77;;
7831;SDS011;3961;42.058;25.586;2022-10-16T04:31:03;27.33;;;12.50;;
7831;SDS011;3961;42.058;25.586;2022-10-16T04:33:29;36.90;;;13.30;;
7831;SDS011;3961;42.058;25.586;2022-10-16T04:35:58;39.07;;;18.03;;
7831;SDS011;3961;42.058;25.586;2022-10-16T04:38:25;33.47;;;14.80;;
7831;SDS011;3961;42.058;25.586;2022-10-16T04:40:51;48.00;;;20.27;;
7831;SDS011;3961;42.058;25.586;2022-10-16T04:43:16;46.47;;;20.10;;
7831;SDS011;3961;42.058;25.586;2022-10-16T04:45:42;39.13;;;18.47;;
7831;SDS011;3961;42.058;25.586;2022-10-16T04:48:07;57.40;;;24.10;;
7831;SDS011;3961;42.058;25.586;2022-10-16T04:50:33;52.00;;;21.70;;
7831;SDS011;3961;42.058;25.586;2022-10-16T04:52:58;44.13;;;19.40;;
7831;SDS011;3961;42.058;25.586;2022-10-16T04:55:24;36.53;;;18.10;;
7831;SDS011;3961;42.058;25.586;2022-10-16T04:57:50;38.80;;;18.10;;
7831;SDS011;3961;42.058;25.586;2022-10-16T05:00:15;39.73;;;14.83;;
7831;SDS011;3961;42.058;25.586;2022-10-16T05:02:41;27.77;;;13.53;;
7831;SDS011;3961;42.058;25.586;2022-10-16T05:05:06;22.93;;;11.90;;
7831;SDS011;3961;42.058;25.586;2022-10-16T05:07:32;19.90;;;9.27;;
7831;SDS011;3961;42.058;25.586;2022-10-16T05:09:57;15.83;;;8.90;;
7831;SDS011;3961;42.058;25.586;2022-10-16T05:12:23;15.93;;;8.93;;
7831;SDS011;3961;42.058;25.586;2022-10-16T05:14:48;11.97;;;8.03;;
7831;SDS011;3961;42.058;25.586;2022-10-16T05:17:14;11.83;;;7.73;;
7831;SDS011;3961;42.058;25.586;2022-10-16T05:19:39;15.90;;;8.63;;
7831;SDS011;3961;42.058;25.586;2022-10-16T05:22:05;16.30;;;9.40;;
7831;SDS011;3961;42.058;25.586;2022-10-16T05:24:30;13.97;;;9.20;;
7831;SDS011;3961;42.058;25.586;2022-10-16T05:26:55;15.27;;;8.03;;
7831;SDS011;3961;42.058;25.586;2022-10-16T05:29:21;13.07;;;8.20;;
7831;SDS011;3961;42.058;25.586;2022-10-16T05:31:49;11.70;;;8.47;;
7831;SDS011;3961;42.058;25.586;2022-10-16T05:34:15;15.73;;;8.20;;
7831;SDS011;3961;42.058;25.586;2022-10-16T05:36:41;14.43;;;8.20;;
7831;SDS011;3961;42.058;25.586;2022-10-16T05:39:06;17.83;;;8.73;;
7831;SDS011;3961;42.058;25.586;2022-10-16T05:41:32;13.60;;;8.70;;
7831;SDS011;3961;42.058;25.586;2022-10-16T05:43:57;15.20;;;9.20;;
7831;SDS011;3961;42.058;25.586;2022-10-16T05:46:23;18.17;;;10.80;;
7831;SDS011;3961;42.058;25.586;2022-10-16T05:48:48;18.67;;;10.40;;
7831;SDS011;3961;42.058;25.586;2022-10-16T05:51:17;15.77;;;9.60;;
7831;SDS011;3961;42.058;25.586;2022-10-16T05:53:43;22.57;;;9.40;;
7831;SDS011;3961;42.058;25.586;2022-10-16T05:56:09;18.67;;;9.40;;
7831;SDS011;3961;42.058;25.586;2022-10-16T05:58:37;16.50;;;10.23;;
7831;SDS011;3961;42.058;25.586;2022-10-16T06:01:10;17.67;;;10.87;;
7831;SDS011;3961;42.058;25.586;2022-10-16T06:03:37;19.67;;;13.23;;
7831;SDS011;3961;42.058;25.586;2022-10-16T06:06:16;18.13;;;11.80;;
7831;SDS011;3961;42.058;25.586;2022-10-16T06:08:43;20.13;;;12.77;;
7831;SDS011;3961;42.058;25.586;2022-10-16T06:11:22;17.53;;;11.33;;
7831;SDS011;3961;42.058;25.586;2022-10-16T06:13:50;20.50;;;11.63;;
7831;SDS011;3961;42.058;25.586;2022-10-16T06:16:17;19.43;;;11.20;;
7831;SDS011;3961;42.058;25.586;2022-10-16T06:18:43;18.17;;;9.87;;
7831;SDS011;3961;42.058;25.586;2022-10-16T06:21:14;16.80;;;9.47;;
7831;SDS011;3961;42.058;25.586;2022-10-16T06:23:42;17.63;;;10.20;;
7831;SDS011;3961;42.058;25.586;2022-10-16T06:26:11;19.77;;;11.03;;
7831;SDS011;3961;42.058;25.586;2022-10-16T06:28:38;19.77;;;11.30;;
7831;SDS011;3961;42.058;25.586;2022-10-16T06:31:05;17.70;;;11.23;;
7831;SDS011;3961;42.058;25.586;2022-10-16T06:33:32;24.60;;;13.17;;
7831;SDS011;3961;42.058;25.586;2022-10-16T06:36:05;22.90;;;12.63;;
7831;SDS011;3961;42.058;25.586;2022-10-16T06:38:33;19.90;;;10.17;;
7831;SDS011;3961;42.058;25.586;2022-10-16T06:40:59;19.10;;;8.57;;
7831;SDS011;3961;42.058;25.586;2022-10-16T06:43:24;15.63;;;9.10;;
7831;SDS011;3961;42.058;25.586;2022-10-16T06:45:51;23.20;;;9.63;;
7831;SDS011;3961;42.058;25.586;2022-10-16T06:48:20;14.60;;;8.93;;
7831;SDS011;3961;42.058;25.586;2022-10-16T06:50:58;14.43;;;8.43;;
7831;SDS011;3961;42.058;25.586;2022-10-16T06:53:26;16.80;;;7.67;;
7831;SDS011;3961;42.058;25.586;2022-10-16T06:55:54;15.87;;;7.63;;
7831;SDS011;3961;42.058;25.586;2022-10-16T06:58:20;12.73;;;7.27;;
7831;SDS011;3961;42.058;25.586;2022-10-16T07:00:45;15.70;;;8.43;;
7831;SDS011;3961;42.058;25.586;2022-10-16T07:03:11;20.30;;;8.97;;
7831;SDS011;3961;42.058;25.586;2022-10-16T07:05:40;15.93;;;8.00;;
7831;SDS011;3961;42.058;25.586;2022-10-16T07:08:07;13.40;;;8.97;;
7831;SDS011;3961;42.058;25.586;2022-10-16T07:10:33;16.47;;;8.13;;
7831;SDS011;3961;42.058;25.586;2022-10-16T07:12:59;17.13;;;8.07;;
7831;SDS011;3961;42.058;25.586;2022-10-16T07:15:25;14.77;;;7.53;;
7831;SDS011;3961;42.058;25.586;2022-10-16T07:17:50;17.27;;;7.90;;
7831;SDS011;3961;42.058;25.586;2022-10-16T07:20:16;13.87;;;8.33;;
7831;SDS011;3961;42.058;25.586;2022-10-16T07:22:41;12.93;;;7.70;;
7831;SDS011;3961;42.058;25.586;2022-10-16T07:25:07;22.17;;;8.67;;
7831;SDS011;3961;42.058;25.586;2022-10-16T07:27:33;14.90;;;9.00;;
7831;SDS011;3961;42.058;25.586;2022-10-16T07:29:59;16.73;;;8.23;;
7831;SDS011;3961;42.058;25.586;2022-10-16T07:32:24;11.57;;;7.97;;
7831;SDS011;3961;42.058;25.586;2022-10-16T07:34:51;18.57;;;7.13;;
7831;SDS011;3961;42.058;25.586;2022-10-16T07:37:17;14.27;;;8.03;;
7831;SDS011;3961;42.058;25.586;2022-10-16T07:39:42;13.40;;;8.17;;
7831;SDS011;3961;42.058;25.586;2022-10-16T07:42:08;11.97;;;6.53;;
7831;SDS011;3961;42.058;25.586;2022-10-16T07:44:33;13.57;;;6.53;;
7831;SDS011;3961;42.058;25.586;2022-10-16T07:46:59;18.93;;;9.17;;
7831;SDS011;3961;42.058;25.586;2022-10-16T07:49:24;14.90;;;7.20;;
7831;SDS011;3961;42.058;25.586;2022-10-16T07:51:50;14.73;;;7.20;;
7831;SDS011;3961;42.058;25.586;2022-10-16T07:54:16;15.13;;;8.90;;
7831;SDS011;3961;42.058;25.586;2022-10-16T07:56:41;20.50;;;8.27;;
7831;SDS011;3961;42.058;25.586;2022-10-16T07:59:07;13.53;;;6.83;;
7831;SDS011;3961;42.058;25.586;2022-10-16T08:01:32;20.10;;;9.37;;
7831;SDS011;3961;42.058;25.586;2022-10-16T08:03:58;15.33;;;7.80;;
7831;SDS011;3961;42.058;25.586;2022-10-16T08:06:23;18.37;;;6.90;;
7831;SDS011;3961;42.058;25.586;2022-10-16T08:08:49;14.97;;;7.10;;
7831;SDS011;3961;42.058;25.586;2022-10-16T08:11:15;15.23;;;7.33;;
7831;SDS011;3961;42.058;25.586;2022-10-16T08:13:40;15.03;;;6.57;;
7831;SDS011;3961;42.058;25.586;2022-10-16T08:16:06;8.93;;;6.60;;
7831;SDS011;3961;42.058;25.586;2022-10-16T08:18:35;11.90;;;6.70;;
7831;SDS011;3961;42.058;25.586;2022-10-16T08:21:03;15.27;;;7.13;;
7831;SDS011;3961;42.058;25.586;2022-10-16T08:23:29;15.40;;;8.27;;
7831;SDS011;3961;42.058;25.586;2022-10-16T08:25:55;13.80;;;8.00;;
7831;SDS011;3961;42.058;25.586;2022-10-16T08:28:26;14.00;;;7.87;;
7831;SDS011;3961;42.058;25.586;2022-10-16T08:30:52;23.40;;;8.10;;
7831;SDS011;3961;42.058;25.586;2022-10-16T08:33:17;12.53;;;7.17;;
7831;SDS011;3961;42.058;25.586;2022-10-16T08:35:49;10.53;;;7.60;;
7831;SDS011;3961;42.058;25.586;2022-10-16T08:38:16;10.77;;;7.40;;
7831;SDS011;3961;42.058;25.586;2022-10-16T08:40:41;12.73;;;7.27;;
7831;SDS011;3961;42.058;25.586;2022-10-16T08:43:21;14.10;;;7.13;;
7831;SDS011;3961;42.058;25.586;2022-10-16T08:48:55;10.23;;;6.83;;
7831;SDS011;3961;42.058;25.586;2022-10-16T08:51:25;15.17;;;7.70;;
7831;SDS011;3961;42.058;25.586;2022-10-16T08:53:56;14.20;;;7.40;;
7831;SDS011;3961;42.058;25.586;2022-10-16T08:56:24;12.93;;;7.73;;
7831;SDS011;3961;42.058;25.586;2022-10-16T08:58:51;11.87;;;7.97;;
7831;SDS011;3961;42.058;25.586;2022-10-16T09:01:19;11.03;;;8.40;;
7831;SDS011;3961;42.058;25.586;2022-10-16T09:06:59;14.13;;;8.20;;
7831;SDS011;3961;42.058;25.586;2022-10-16T09:14:07;11.80;;;8.80;;
7831;SDS011;3961;42.058;25.586;2022-10-16T09:16:57;13.00;;;9.03;;
7831;SDS011;3961;42.058;25.586;2022-10-16T09:19:35;12.90;;;8.30;;
7831;SDS011;3961;42.058;25.586;2022-10-16T09:22:14;11.47;;;8.27;;
7831;SDS011;3961;42.058;25.586;2022-10-16T09:24:41;19.23;;;8.77;;
7831;SDS011;3961;42.058;25.586;2022-10-16T09:27:10;11.30;;;7.90;;
7831;SDS011;3961;42.058;25.586;2022-10-16T09:29:37;13.67;;;7.83;;
7831;SDS011;3961;42.058;25.586;2022-10-16T09:32:15;14.13;;;8.57;;
7831;SDS011;3961;42.058;25.586;2022-10-16T09:34:51;13.83;;;8.60;;
7831;SDS011;3961;42.058;25.586;2022-10-16T09:37:21;11.33;;;8.10;;
7831;SDS011;3961;42.058;25.586;2022-10-16T09:39:51;13.10;;;8.40;;
7831;SDS011;3961;42.058;25.586;2022-10-16T09:42:26;13.43;;;8.67;;
7831;SDS011;3961;42.058;25.586;2022-10-16T09:44:56;12.77;;;8.60;;
7831;SDS011;3961;42.058;25.586;2022-10-16T09:47:23;16.33;;;8.83;;
7831;SDS011;3961;42.058;25.586;2022-10-16T09:49:58;13.00;;;7.93;;
7831;SDS011;3961;42.058;25.586;2022-10-16T09:52:26;15.80;;;8.10;;
7831;SDS011;3961;42.058;25.586;2022-10-16T09:54:53;13.80;;;7.93;;
7831;SDS011;3961;42.058;25.586;2022-10-16T09:57:21;11.17;;;7.77;;
7831;SDS011;3961;42.058;25.586;2022-10-16T09:59:57;14.37;;;8.10;;
7831;SDS011;3961;42.058;25.586;2022-10-16T10:02:28;11.80;;;6.70;;
7831;SDS011;3961;42.058;25.586;2022-10-16T10:04:56;11.60;;;7.60;;
7831;SDS011;3961;42.058;25.586;2022-10-16T10:07:32;14.20;;;8.13;;
7831;SDS011;3961;42.058;25.586;2022-10-16T10:10:04;11.83;;;7.13;;
7831;SDS011;3961;42.058;25.586;2022-10-16T10:12:30;13.80;;;7.37;;
7831;SDS011;3961;42.058;25.586;2022-10-16T10:15:03;11.93;;;7.70;;
7831;SDS011;3961;42.058;25.586;2022-10-16T10:17:30;9.73;;;6.97;;
7831;SDS011;3961;42.058;25.586;2022-10-16T10:22:32;12.73;;;7.47;;
7831;SDS011;3961;42.058;25.586;2022-10-16T10:30:29;10.70;;;7.03;;
7831;SDS011;3961;42.058;25.586;2022-10-16T10:33:18;12.97;;;7.10;;
7831;SDS011;3961;42.058;25.586;2022-10-16T10:38:51;10.13;;;6.90;;
7831;SDS011;3961;42.058;25.586;2022-10-16T10:50:37;11.67;;;6.90;;
7831;SDS011;3961;42.058;25.586;2022-10-16T10:53:18;11.13;;;6.57;;
7831;SDS011;3961;42.058;25.586;2022-10-16T10:58:43;9.10;;;6.00;;
7831;SDS011;3961;42.058;25.586;2022-10-16T11:03:58;8.10;;;5.73;;
7831;SDS011;3961;42.058;25.586;2022-10-16T11:06:29;11.80;;;6.20;;
7831;SDS011;3961;42.058;25.586;2022-10-16T11:09:23;9.67;;;5.80;;
7831;SDS011;3961;42.058;25.586;2022-10-16T11:11:54;10.57;;;5.70;;
7831;SDS011;3961;42.058;25.586;2022-10-16T11:14:28;8.93;;;5.93;;
7831;SDS011;3961;42.058;25.586;2022-10-16T11:17:18;11.67;;;6.03;;
7831;SDS011;3961;42.058;25.586;2022-10-16T11:22:37;8.00;;;4.80;;
7831;SDS011;3961;42.058;25.586;2022-10-16T11:25:19;6.10;;;4.83;;
7831;SDS011;3961;42.058;25.586;2022-10-16T11:33:36;5.87;;;3.80;;
7831;SDS011;3961;42.058;25.586;2022-10-16T11:39:04;7.23;;;3.80;;
7831;SDS011;3961;42.058;25.586;2022-10-16T11:41:50;9.43;;;4.50;;
7831;SDS011;3961;42.058;25.586;2022-10-16T11:49:58;9.03;;;4.70;;
7831;SDS011;3961;42.058;25.586;2022-10-16T11:52:33;8.30;;;4.77;;
7831;SDS011;3961;42.058;25.586;2022-10-16T11:55:16;9.70;;;5.47;;
7831;SDS011;3961;42.058;25.586;2022-10-16T11:57:46;7.60;;;4.80;;
7831;SDS011;3961;42.058;25.586;2022-10-16T12:09:04;8.63;;;4.43;;
7831;SDS011;3961;42.058;25.586;2022-10-16T12:11:37;9.57;;;4.57;;
7831;SDS011;3961;42.058;25.586;2022-10-16T12:14:16;8.10;;;4.70;;
7831;SDS011;3961;42.058;25.586;2022-10-16T12:16:52;10.33;;;5.40;;
7831;SDS011;3961;42.058;25.586;2022-10-16T12:19:18;8.33;;;4.67;;
7831;SDS011;3961;42.058;25.586;2022-10-16T12:21:43;9.27;;;4.90;;
7831;SDS011;3961;42.058;25.586;2022-10-16T12:26:47;8.00;;;4.67;;
7831;SDS011;3961;42.058;25.586;2022-10-16T12:31:54;5.97;;;3.97;;
7831;SDS011;3961;42.058;25.586;2022-10-16T12:34:25;8.20;;;5.00;;
7831;SDS011;3961;42.058;25.586;2022-10-16T12:36:54;9.17;;;4.63;;
7831;SDS011;3961;42.058;25.586;2022-10-16T12:39:22;6.87;;;4.77;;
7831;SDS011;3961;42.058;25.586;2022-10-16T12:42:05;10.17;;;5.03;;
7831;SDS011;3961;42.058;25.586;2022-10-16T12:44:45;8.37;;;5.23;;
7831;SDS011;3961;42.058;25.586;2022-10-16T12:47:24;11.37;;;5.10;;
7831;SDS011;3961;42.058;25.586;2022-10-16T12:50:03;8.37;;;5.23;;
7831;SDS011;3961;42.058;25.586;2022-10-16T12:52:48;7.63;;;4.90;;
7831;SDS011;3961;42.058;25.586;2022-10-16T12:55:17;8.60;;;4.63;;
7831;SDS011;3961;42.058;25.586;2022-10-16T13:03:23;7.27;;;4.63;;
7831;SDS011;3961;42.058;25.586;2022-10-16T13:14:45;7.70;;;4.07;;
7831;SDS011;3961;42.058;25.586;2022-10-16T13:17:27;7.13;;;3.80;;
7831;SDS011;3961;42.058;25.586;2022-10-16T13:22:29;6.77;;;4.20;;
7831;SDS011;3961;42.058;25.586;2022-10-16T13:25:13;5.90;;;4.10;;
7831;SDS011;3961;42.058;25.586;2022-10-16T13:30:28;6.47;;;4.10;;
7831;SDS011;3961;42.058;25.586;2022-10-16T13:35:52;8.30;;;4.00;;
7831;SDS011;3961;42.058;25.586;2022-10-16T13:38:23;6.97;;;4.40;;
7831;SDS011;3961;42.058;25.586;2022-10-16T13:41:03;8.03;;;4.47;;
7831;SDS011;3961;42.058;25.586;2022-10-16T13:48:36;7.23;;;2.83;;
7831;SDS011;3961;42.058;25.586;2022-10-16T13:51:19;6.43;;;2.63;;
7831;SDS011;3961;42.058;25.586;2022-10-16T13:53:45;7.70;;;3.37;;
7831;SDS011;3961;42.058;25.586;2022-10-16T13:56:21;7.63;;;2.67;;
7831;SDS011;3961;42.058;25.586;2022-10-16T14:01:47;3.20;;;2.33;;
7831;SDS011;3961;42.058;25.586;2022-10-16T14:04:15;4.57;;;2.60;;
7831;SDS011;3961;42.058;25.586;2022-10-16T14:06:42;3.47;;;2.57;;
7831;SDS011;3961;42.058;25.586;2022-10-16T14:09:21;5.30;;;2.57;;
7831;SDS011;3961;42.058;25.586;2022-10-16T14:11:51;6.90;;;2.70;;
7831;SDS011;3961;42.058;25.586;2022-10-16T14:14:21;7.60;;;2.47;;
7831;SDS011;3961;42.058;25.586;2022-10-16T14:16:47;3.73;;;2.60;;
7831;SDS011;3961;42.058;25.586;2022-10-16T14:19:24;7.37;;;2.80;;
7831;SDS011;3961;42.058;25.586;2022-10-16T14:21:52;3.93;;;2.70;;
7831;SDS011;3961;42.058;25.586;2022-10-16T14:24:36;5.27;;;2.23;;
7831;SDS011;3961;42.058;25.586;2022-10-16T14:27:20;6.80;;;2.77;;
7831;SDS011;3961;42.058;25.586;2022-10-16T14:32:52;7.43;;;2.50;;
7831;SDS011;3961;42.058;25.586;2022-10-16T14:35:32;3.23;;;2.50;;
7831;SDS011;3961;42.058;25.586;2022-10-16T14:37:58;5.07;;;2.53;;
7831;SDS011;3961;42.058;25.586;2022-10-16T14:40:29;4.50;;;2.47;;
7831;SDS011;3961;42.058;25.586;2022-10-16T14:42:57;5.47;;;2.60;;
7831;SDS011;3961;42.058;25.586;2022-10-16T14:45:24;4.83;;;2.77;;
7831;SDS011;3961;42.058;25.586;2022-10-16T14:47:54;5.07;;;2.83;;
7831;SDS011;3961;42.058;25.586;2022-10-16T14:50:23;4.17;;;2.63;;
7831;SDS011;3961;42.058;25.586;2022-10-16T14:52:49;3.10;;;2.50;;
7831;SDS011;3961;42.058;25.586;2022-10-16T14:55:15;5.70;;;3.10;;
7831;SDS011;3961;42.058;25.586;2022-10-16T14:57:42;4.87;;;2.70;;
7831;SDS011;3961;42.058;25.586;2022-10-16T15:00:13;7.67;;;2.97;;
7831;SDS011;3961;42.058;25.586;2022-10-16T15:02:42;8.23;;;3.10;;
7831;SDS011;3961;42.058;25.586;2022-10-16T15:05:23;4.03;;;2.67;;
7831;SDS011;3961;42.058;25.586;2022-10-16T15:07:51;8.33;;;3.03;;
7831;SDS011;3961;42.058;25.586;2022-10-16T15:10:21;10.17;;;3.27;;
7831;SDS011;3961;42.058;25.586;2022-10-16T15:12:48;4.83;;;3.10;;
7831;SDS011;3961;42.058;25.586;2022-10-16T15:15:25;4.83;;;3.20;;
7831;SDS011;3961;42.058;25.586;2022-10-16T15:17:55;7.77;;;3.20;;
7831;SDS011;3961;42.058;25.586;2022-10-16T15:20:25;5.83;;;3.00;;
7831;SDS011;3961;42.058;25.586;2022-10-16T15:22:52;7.83;;;3.43;;
7831;SDS011;3961;42.058;25.586;2022-10-16T15:25:34;6.93;;;3.27;;
7831;SDS011;3961;42.058;25.586;2022-10-16T15:28:01;7.13;;;3.13;;
7831;SDS011;3961;42.058;25.586;2022-10-16T15:30:28;12.30;;;3.40;;
7831;SDS011;3961;42.058;25.586;2022-10-16T15:32:54;6.47;;;3.27;;
7831;SDS011;3961;42.058;25.586;2022-10-16T15:35:19;5.83;;;3.10;;
7831;SDS011;3961;42.058;25.586;2022-10-16T15:37:48;8.17;;;3.40;;
7831;SDS011;3961;42.058;25.586;2022-10-16T15:40:14;8.50;;;3.40;;
7831;SDS011;3961;42.058;25.586;2022-10-16T15:42:42;10.10;;;4.23;;
7831;SDS011;3961;42.058;25.586;2022-10-16T15:45:08;22.20;;;4.50;;
7831;SDS011;3961;42.058;25.586;2022-10-16T15:47:35;6.50;;;2.87;;
7831;SDS011;3961;42.058;25.586;2022-10-16T15:50:00;7.03;;;3.83;;
7831;SDS011;3961;42.058;25.586;2022-10-16T15:52:26;12.80;;;4.10;;
7831;SDS011;3961;42.058;25.586;2022-10-16T15:54:53;8.70;;;3.73;;
7831;SDS011;3961;42.058;25.586;2022-10-16T15:57:19;7.20;;;3.57;;
7831;SDS011;3961;42.058;25.586;2022-10-16T15:59:45;6.63;;;3.80;;
7831;SDS011;3961;42.058;25.586;2022-10-16T16:02:10;15.73;;;4.07;;
7831;SDS011;3961;42.058;25.586;2022-10-16T16:04:36;10.30;;;3.50;;
7831;SDS011;3961;42.058;25.586;2022-10-16T16:07:02;7.30;;;3.67;;
7831;SDS011;3961;42.058;25.586;2022-10-16T16:09:30;10.60;;;3.83;;
7831;SDS011;3961;42.058;25.586;2022-10-16T16:11:56;8.13;;;3.93;;
7831;SDS011;3961;42.058;25.586;2022-10-16T16:14:23;5.60;;;4.10;;
7831;SDS011;3961;42.058;25.586;2022-10-16T16:16:51;8.00;;;3.23;;
7831;SDS011;3961;42.058;25.586;2022-10-16T16:19:16;9.03;;;4.10;;
7831;SDS011;3961;42.058;25.586;2022-10-16T16:21:45;8.87;;;3.93;;
7831;SDS011;3961;42.058;25.586;2022-10-16T16:24:11;12.27;;;4.30;;
7831;SDS011;3961;42.058;25.586;2022-10-16T16:26:37;9.07;;;4.77;;
7831;SDS011;3961;42.058;25.586;2022-10-16T16:29:05;9.70;;;3.60;;
7831;SDS011;3961;42.058;25.586;2022-10-16T16:31:31;9.43;;;3.70;;
7831;SDS011;3961;42.058;25.586;2022-10-16T16:33:57;16.10;;;5.20;;
7831;SDS011;3961;42.058;25.586;2022-10-16T16:36:24;12.87;;;5.67;;
7831;SDS011;3961;42.058;25.586;2022-10-16T16:38:50;15.97;;;6.17;;
7831;SDS011;3961;42.058;25.586;2022-10-16T16:41:17;8.47;;;5.13;;
7831;SDS011;3961;42.058;25.586;2022-10-16T16:43:44;13.47;;;4.30;;
7831;SDS011;3961;42.058;25.586;2022-10-16T16:46:11;10.43;;;4.47;;
7831;SDS011;3961;42.058;25.586;2022-10-16T16:48:37;9.90;;;4.43;;
7831;SDS011;3961;42.058;25.586;2022-10-16T16:51:06;8.63;;;3.97;;
7831;SDS011;3961;42.058;25.586;2022-10-16T16:53:36;15.77;;;4.30;;
7831;SDS011;3961;42.058;25.586;2022-10-16T16:56:02;10.13;;;4.20;;
7831;SDS011;3961;42.058;25.586;2022-10-16T16:58:29;14.80;;;4.53;;
7831;SDS011;3961;42.058;25.586;2022-10-16T17:00:55;11.20;;;4.53;;
7831;SDS011;3961;42.058;25.586;2022-10-16T17:03:21;8.13;;;4.60;;
7831;SDS011;3961;42.058;25.586;2022-10-16T17:05:57;10.00;;;4.90;;
7831;SDS011;3961;42.058;25.586;2022-10-16T17:08:24;12.40;;;4.60;;
7831;SDS011;3961;42.058;25.586;2022-10-16T17:10:49;9.70;;;4.43;;
7831;SDS011;3961;42.058;25.586;2022-10-16T17:13:18;12.77;;;4.57;;
7831;SDS011;3961;42.058;25.586;2022-10-16T17:15:47;7.33;;;4.40;;